Time;durP1;ratioP1;P1;durP2;ratioP2;P2;SDS_P1;SDS_P2;PMS_P1;PMS_P2;Temp;Humidity;BMP_temperature;BMP_pressure;BME280_temperature;BME280_humidity;BME280_pressure;Samples;Min_cycle;Max_cycle;Signal;HPM_P1;HPM_P2
2021/09/22 00:02:15;;;;;;;2.15;1.35;;;;;;;7.62;82.59;100474.70;1796405;78;21050;-68
2021/09/22 00:04:44;;;;;;;2.42;1.20;;;;;;;7.62;82.22;100485.33;1820867;77;21106;-68
2021/09/22 00:07:24;;;;;;;2.27;1.30;;;;;;;7.60;82.35;100472.82;1808878;78;22174;-68
2021/09/22 00:09:56;;;;;;;3.95;1.60;;;;;;;;;;1799055;78;21048;-68
2021/09/22 00:12:32;;;;;;;2.50;1.57;;;;;;;7.61;81.93;100485.05;1804221;78;21607;-68
2021/09/22 00:15:10;;;;;;;3.90;1.60;;;;;;;7.60;81.84;100478.63;1807376;78;21156;-68
2021/09/22 00:17:40;;;;;;;2.17;1.47;;;;;;;7.58;81.65;100472.77;1802790;78;21831;-68
2021/09/22 00:20:08;;;;;;;2.55;1.65;;;;;;;7.55;81.71;100474.05;1807163;78;21051;-67
2021/09/22 00:22:42;;;;;;;2.72;1.70;;;;;;;7.56;81.61;100484.95;1795399;78;21036;-68
2021/09/22 00:25:18;;;;;;;3.33;1.75;;;;;;;7.57;81.44;100469.31;1803975;78;21090;-67
2021/09/22 00:27:49;;;;;;;3.20;1.70;;;;;;;7.57;81.56;100481.27;1809451;78;21022;-67
2021/09/22 00:30:27;;;;;;;3.10;1.55;;;;;;;7.59;81.50;100477.83;1796158;78;21143;-67
2021/09/22 00:33:07;;;;;;;4.12;1.82;;;;;;;7.61;81.35;100472.29;1788151;79;21069;-67
2021/09/22 00:35:43;;;;;;;1.92;1.40;;;;;;;7.60;81.40;100470.66;1808279;78;20991;-68
2021/09/22 00:38:21;;;;;;;2.65;1.67;;;;;;;7.60;81.50;100470.66;1818816;77;21572;-68
2021/09/22 00:40:52;;;;;;;3.15;1.70;;;;;;;7.63;81.64;100470.98;1813252;78;21058;-68
2021/09/22 00:43:23;;;;;;;2.58;1.70;;;;;;;7.59;81.59;100465.87;1804577;78;21462;-67
2021/09/22 00:46:06;;;;;;;3.80;1.72;;;;;;;7.55;81.78;100462.08;1818105;78;21050;-67
2021/09/22 00:48:50;;;;;;;2.80;1.47;;;;;;;7.54;81.87;100459.67;1830833;77;20988;-68
2021/09/22 00:51:34;;;;;;;2.90;1.82;;;;;;;7.50;82.07;100456.66;1825406;77;21020;-68
2021/09/22 00:54:15;;;;;;;4.72;1.98;;;;;;;7.49;82.09;100453.73;1795355;77;21038;-68
2021/09/22 00:56:54;;;;;;;2.47;1.60;;;;;;;7.51;82.26;100455.64;1801452;77;21140;-68
2021/09/22 00:59:30;;;;;;;2.22;1.50;;;;;;;7.56;82.23;100454.91;1824412;77;21560;-68
2021/09/22 01:02:03;;;;;;;2.72;1.75;;;;;;;7.54;82.06;100449.05;1788355;79;21085;-69
2021/09/22 01:04:38;;;;;;;3.15;1.50;;;;;;;7.52;81.97;100443.95;1790250;78;21361;-68
2021/09/22 01:07:16;;;;;;;3.10;1.95;;;;;;;7.51;82.06;100452.45;1824602;77;21062;-68
2021/09/22 01:09:52;;;;;;;2.65;1.52;;;;;;;7.52;81.99;100447.94;1824169;77;21810;-68
2021/09/22 01:12:33;;;;;;;3.67;1.80;;;;;;;7.54;81.80;100447.19;1796246;79;20964;-68
2021/09/22 01:15:09;;;;;;;3.05;1.60;;;;;;;7.54;81.87;100435.76;1793806;78;21062;-68
2021/09/22 01:17:39;;;;;;;2.50;1.72;;;;;;;7.55;81.62;100442.15;1825565;78;21085;-68
2021/09/22 01:20:15;;;;;;;2.50;1.60;;;;;;;7.55;81.62;100438.16;1785614;78;21140;-69
2021/09/22 01:22:50;;;;;;;2.90;1.80;;;;;;;7.54;81.36;100445.86;1764278;80;21086;-68
2021/09/22 01:25:20;;;;;;;2.77;1.90;;;;;;;7.53;81.33;100438.91;1803859;78;21499;-68
2021/09/22 01:27:49;;;;;;;2.65;1.80;;;;;;;7.56;81.33;100436.30;1776302;78;21491;-67
2021/09/22 01:30:19;;;;;;;3.95;2.00;;;;;;;7.58;81.36;100439.02;1832696;77;21537;-69
2021/09/22 01:32:51;;;;;;;2.52;1.80;;;;;;;7.61;81.20;100441.72;1793808;78;20991;-68
2021/09/22 01:35:20;;;;;;;3.92;1.60;;;;;;;7.59;80.84;100436.63;1810960;79;21019;-68
2021/09/22 01:37:58;;;;;;;3.60;1.95;;;;;;;7.54;80.76;100437.89;1783102;78;21015;-68
2021/09/22 01:40:39;;;;;;;3.10;1.82;;;;;;;7.48;80.72;100430.87;1735108;79;21621;-67
2021/09/22 01:43:07;;;;;;;4.90;1.80;;;;;;;7.50;80.84;100434.07;1799767;77;21085;-68
2021/09/22 01:45:37;;;;;;;2.75;1.67;;;;;;;7.52;80.69;100430.66;1804866;79;21059;-68
2021/09/22 01:48:07;;;;;;;2.45;1.70;;;;;;;7.52;80.49;100426.15;1807347;78;21124;-67
2021/09/22 01:50:35;;;;;;;3.47;1.98;;;;;;;7.51;80.25;100435.18;1810481;78;21011;-67
2021/09/22 01:53:04;;;;;;;3.35;1.80;;;;;;;7.50;80.24;100431.41;1816441;77;21655;-67
2021/09/22 01:55:32;;;;;;;3.00;1.80;;;;;;;7.50;80.06;100429.59;1789167;79;21490;-68
2021/09/22 01:58:02;;;;;;;2.50;1.75;;;;;;;7.52;79.98;100433.32;1802444;79;21039;-67
2021/09/22 02:00:37;;;;;;;2.67;1.62;;;;;;;7.55;79.94;100430.72;1780368;78;21970;-67
2021/09/22 02:03:05;;;;;;;2.10;1.55;;;;;;;7.54;79.88;100432.57;1780559;79;21027;-67
2021/09/22 02:05:36;;;;;;;2.60;1.62;;;;;;;7.56;79.94;100425.14;1812770;76;21093;-70
2021/09/22 02:08:11;;;;;;;3.70;2.00;;;;;;;7.57;79.93;100426.78;1819399;77;21493;-69
2021/09/22 02:10:39;;;;;;;3.83;1.72;;;;;;;7.59;80.03;100426.52;1823506;77;21050;-69
2021/09/22 02:13:07;;;;;;;2.70;1.60;;;;;;;7.58;79.86;100427.58;1793547;79;21048;-70
2021/09/22 02:15:36;;;;;;;2.77;1.50;;;;;;;7.60;79.91;100425.47;1798798;77;21102;-70
2021/09/22 02:18:14;;;;;;;2.77;1.70;;;;;;;7.64;79.90;100426.09;1786832;79;21039;-69
2021/09/22 02:20:43;;;;;;;3.00;1.60;;;;;;;7.64;79.80;100415.46;1825100;76;21151;-69
2021/09/22 02:23:12;;;;;;;2.83;1.70;;;;;;;7.63;79.56;100423.66;1824657;77;20986;-69
2021/09/22 02:25:40;;;;;;;3.47;1.75;;;;;;;7.61;79.36;100417.27;1824533;76;21530;-69
2021/09/22 02:28:08;;;;;;;2.75;1.70;;;;;;;7.59;79.54;100410.58;1825588;77;21073;-69
2021/09/22 02:30:38;;;;;;;3.40;1.65;;;;;;;7.59;79.50;100414.03;1796525;77;21591;-69
2021/09/22 02:33:06;;;;;;;3.62;1.82;;;;;;;7.60;79.58;100413.02;1826277;77;21507;-69
2021/09/22 02:35:33;;;;;;;3.22;1.50;;;;;;;7.60;79.20;100425.47;1842412;77;20991;-68
2021/09/22 02:38:19;;;;;;;3.45;1.60;;;;;;;7.58;78.62;100412.96;1799254;78;21096;-68
2021/09/22 02:40:47;;;;;;;2.75;1.87;;;;;;;7.59;78.49;100414.03;1815794;77;21082;-69
2021/09/22 02:43:16;;;;;;;2.83;1.50;;;;;;;7.63;78.56;100419.67;1790706;78;21073;-69
2021/09/22 02:45:42;;;;;;;4.10;1.70;;;;;;;7.64;78.72;100422.11;1852962;77;21137;-69
2021/09/22 02:48:09;;;;;;;3.20;2.10;;;;;;;7.63;78.98;100413.83;1827033;77;21050;-69
2021/09/22 02:50:39;;;;;;;3.55;1.70;;;;;;;7.57;78.94;100421.46;1802891;79;21180;-69
2021/09/22 02:53:08;;;;;;;3.98;1.80;;;;;;;7.49;79.10;100415.20;1791331;78;21046;-69
2021/09/22 02:55:34;;;;;;;3.02;1.62;;;;;;;7.47;79.49;100415.45;1809835;79;20988;-69
2021/09/22 02:58:02;;;;;;;3.12;1.80;;;;;;;7.45;79.60;100418.05;1827162;78;20990;-69
2021/09/22 03:00:29;;;;;;;3.05;1.60;;;;;;;7.47;79.82;100417.30;1800689;78;21015;-69
2021/09/22 03:02:57;;;;;;;3.33;1.70;;;;;;;7.51;79.93;100419.76;1800237;78;21427;-69
2021/09/22 03:05:24;;;;;;;2.30;1.50;;;;;;;7.51;80.03;100420.56;1805629;77;21098;-70
2021/09/22 03:07:51;;;;;;;2.65;1.60;;;;;;;7.55;80.08;100412.91;1793241;78;21491;-69
2021/09/22 03:10:22;;;;;;;2.87;1.70;;;;;;;7.55;79.87;100419.56;1801955;78;21034;-69
2021/09/22 03:12:47;;;;;;;2.95;1.62;;;;;;;7.53;79.69;100420.31;1799720;78;21065;-69
2021/09/22 03:15:16;;;;;;;2.87;1.60;;;;;;;7.49;79.38;100416.52;1818029;78;21023;-70
2021/09/22 03:17:43;;;;;;;2.58;1.62;;;;;;;7.43;79.60;100421.47;1822465;78;20998;-70
2021/09/22 03:20:11;;;;;;;2.27;1.52;;;;;;;7.43;79.76;100423.59;1793740;78;21030;-70
2021/09/22 03:22:39;;;;;;;2.60;1.30;;;;;;;7.43;79.88;100420.94;1798972;78;21054;-70
2021/09/22 03:25:10;;;;;;;3.27;1.52;;;;;;;7.45;79.96;100426.03;1800623;79;21037;-70
2021/09/22 03:27:37;;;;;;;4.03;1.65;;;;;;;7.45;79.92;100419.38;1803656;79;21092;-70
2021/09/22 03:30:06;;;;;;;4.58;1.67;;;;;;;7.45;79.82;100417.53;1810953;77;21100;-70
2021/09/22 03:32:33;;;;;;;3.02;1.77;;;;;;;7.45;79.58;100420.72;1767444;79;21011;-70
2021/09/22 03:35:00;;;;;;;2.22;1.45;;;;;;;7.43;79.49;100422.80;1795810;78;21050;-70
2021/09/22 03:37:28;;;;;;;2.52;1.60;;;;;;;7.41;79.50;100419.59;1812902;78;20991;-70
2021/09/22 03:39:56;;;;;;;3.10;1.30;;;;;;;7.40;79.60;100423.27;1793342;78;21377;-70
2021/09/22 03:42:23;;;;;;;3.15;1.40;;;;;;;7.38;79.80;100426.18;1792504;79;21427;-70
2021/09/22 03:44:50;;;;;;;2.62;1.60;;;;;;;7.36;80.04;100409.66;1830263;77;21425;-70
2021/09/22 03:47:17;;;;;;;2.47;1.55;;;;;;;7.34;80.34;100410.94;1814702;77;21071;-70
2021/09/22 03:49:46;;;;;;;2.90;1.50;;;;;;;7.34;80.55;100418.41;1792849;78;21050;-70
2021/09/22 03:52:24;;;;;;;2.40;1.52;;;;;;;7.35;80.70;100421.34;1812598;78;21108;-70
2021/09/22 03:54:53;;;;;;;2.10;1.32;;;;;;;7.36;80.75;100427.45;1806507;79;21082;-68
2021/09/22 03:57:24;;;;;;;3.02;1.70;;;;;;;7.37;81.01;100422.41;1804534;78;21493;-69
2021/09/22 03:59:59;;;;;;;4.00;1.55;;;;;;;7.38;81.02;100425.38;1827680;77;21327;-69
2021/09/22 04:02:30;;;;;;;3.95;1.50;;;;;;;7.37;80.95;100421.09;1802350;79;20996;-69
2021/09/22 04:05:05;;;;;;;2.25;1.45;;;;;;;7.32;80.98;100427.66;1800678;78;21158;-69
2021/09/22 04:07:39;;;;;;;1.98;1.40;;;;;;;7.26;81.11;100420.91;1796880;78;21058;-69
2021/09/22 04:10:07;;;;;;;2.05;1.30;;;;;;;7.25;81.37;100427.27;1803094;78;21034;-70
2021/09/22 04:12:35;;;;;;;3.30;1.80;;;;;;;7.25;81.37;100422.48;1789338;80;21054;-70
2021/09/22 04:15:03;;;;;;;2.47;1.50;;;;;;;7.24;81.43;100424.34;1813519;78;21095;-69
2021/09/22 04:17:36;;;;;;;3.37;1.50;;;;;;;7.24;81.55;100429.66;1816509;78;21026;-69
2021/09/22 04:20:08;;;;;;;2.80;1.60;;;;;;;7.24;81.68;100423.02;1807301;77;20945;-69
2021/09/22 04:22:43;;;;;;;3.52;1.37;;;;;;;7.28;81.66;100426.00;1831382;78;20975;-69
2021/09/22 04:25:14;;;;;;;2.72;1.65;;;;;;;7.29;81.62;100425.75;1829884;77;21033;-69
2021/09/22 04:27:45;;;;;;;3.92;1.60;;;;;;;7.33;81.50;100423.95;1823570;77;21011;-69
2021/09/22 04:30:17;;;;;;;3.05;1.42;;;;;;;7.33;81.25;100422.61;1806499;77;21286;-69
2021/09/22 04:33:02;;;;;;;2.75;1.60;;;;;;;7.36;81.10;100420.81;1795189;77;21110;-69
2021/09/22 04:35:52;;;;;;;3.80;1.60;;;;;;;7.35;80.93;100419.20;1799075;79;21034;-70
2021/09/22 04:38:43;;;;;;;3.25;1.80;;;;;;;7.37;80.65;100417.09;1774930;78;21093;-70
2021/09/22 04:41:15;;;;;;;3.30;1.87;;;;;;;7.36;80.55;100415.50;1731598;78;21392;-69
2021/09/22 04:44:02;;;;;;;2.70;1.70;;;;;;;7.36;80.46;100415.50;1821856;78;21506;-70
2021/09/22 04:46:50;;;;;;;2.35;1.55;;;;;;;7.38;80.53;100416.87;1821402;77;21513;-68
2021/09/22 04:49:42;;;;;;;2.83;1.60;;;;;;;7.42;80.41;100419.86;1807888;77;21301;-69
2021/09/22 04:52:33;;;;;;;3.10;1.72;;;;;;;7.45;80.38;100423.37;1824454;78;21133;-70
2021/09/22 04:55:19;;;;;;;3.17;1.52;;;;;;;7.43;79.95;100426.25;1770599;78;21089;-70
2021/09/22 04:58:06;;;;;;;2.77;1.80;;;;;;;7.40;79.74;100419.28;1814807;78;21545;-69
2021/09/22 05:00:38;;;;;;;3.15;2.00;;;;;;;7.36;79.63;100416.83;1760334;80;21072;-70
2021/09/22 05:03:26;;;;;;;2.90;1.72;;;;;;;7.36;79.84;100421.61;1819925;77;21583;-70
2021/09/22 05:06:14;;;;;;;3.30;1.70;;;;;;;7.42;79.96;100423.84;1778732;80;21003;-69
2021/09/22 05:09:03;;;;;;;6.80;2.72;;;;;;;7.48;79.95;100426.35;1777361;79;21180;-69
2021/09/22 05:11:54;;;;;;;3.77;1.80;;;;;;;7.55;79.82;100423.55;1788472;80;21081;-68
2021/09/22 05:14:45;;;;;;;5.72;1.92;;;;;;;7.58;79.44;100425.72;1799018;78;20951;-69
2021/09/22 05:17:41;;;;;;;3.33;1.75;;;;;;;7.53;79.04;100425.62;1815853;78;21066;-70
2021/09/22 05:20:37;;;;;;;2.95;1.50;;;;;;;7.54;79.06;100431.77;1813145;78;21066;-69
2021/09/22 05:23:30;;;;;;;3.15;1.57;;;;;;;7.55;79.09;100430.72;1822389;77;20995;-68
2021/09/22 05:26:17;;;;;;;3.10;2.00;;;;;;;7.57;79.03;100437.91;1816921;79;21140;-69
2021/09/22 05:29:11;;;;;;;3.40;1.60;;;;;;;7.53;78.98;100430.94;1814784;78;21030;-69
2021/09/22 05:32:08;;;;;;;3.45;1.90;;;;;;;7.50;79.02;100424.77;1826952;78;21041;-69
2021/09/22 05:35:33;;;;;;;3.87;2.02;;;;;;;7.47;79.21;100427.94;1824125;78;20959;-69
2021/09/22 05:38:19;;;;;;;3.47;1.95;;;;;;;7.46;79.32;100432.95;1811716;77;21046;-69
2021/09/22 05:41:04;;;;;;;3.55;2.20;;;;;;;7.42;79.60;100435.80;1811456;79;21126;-71
2021/09/22 05:43:50;;;;;;;5.12;2.22;;;;;;;7.43;79.85;100424.13;1827323;78;20987;-70
2021/09/22 05:46:36;;;;;;;3.65;2.15;;;;;;;7.44;79.87;100428.41;1827337;78;21376;-69
2021/09/22 05:49:21;;;;;;;4.78;2.15;;;;;;;7.38;79.95;100434.67;1811635;79;21019;-70
2021/09/22 05:52:06;;;;;;;3.85;2.22;;;;;;;7.36;80.16;100440.73;1794360;78;21106;-70
2021/09/22 05:54:54;;;;;;;3.83;2.10;;;;;;;7.34;80.46;100434.84;1822086;77;20987;-70
2021/09/22 05:57:42;;;;;;;4.12;2.20;;;;;;;7.37;80.50;100430.39;1789569;79;21106;-70
2021/09/22 06:00:27;;;;;;;3.80;2.10;;;;;;;7.46;80.68;100439.59;1819814;77;21082;-70
2021/09/22 06:03:12;;;;;;;3.70;1.90;;;;;;;7.54;80.25;100439.74;1794937;79;21063;-70
2021/09/22 06:05:51;;;;;;;4.55;2.42;;;;;;;7.57;79.66;100433.92;1782202;79;21593;-70
2021/09/22 06:08:20;;;;;;;3.10;1.98;;;;;;;7.59;79.58;100428.66;1792905;79;21702;-69
2021/09/22 06:10:59;;;;;;;3.33;1.70;;;;;;;7.65;79.50;100427.70;1776969;78;21121;-70
2021/09/22 06:13:34;;;;;;;3.25;1.70;;;;;;;7.74;79.23;100428.92;1774354;79;21049;-70
2021/09/22 06:16:00;;;;;;;3.17;1.80;;;;;;;7.72;78.80;100427.02;1805701;77;21577;-70
2021/09/22 06:18:27;;;;;;;3.33;1.90;;;;;;;7.80;78.90;100425.00;1805856;77;21055;-75
2021/09/22 06:20:54;;;;;;;3.52;2.00;;;;;;;7.88;78.66;100428.60;1815121;77;21606;-73
2021/09/22 06:23:20;;;;;;;3.15;1.70;;;;;;;7.92;77.93;100427.86;1821743;77;21058;-74
2021/09/22 06:25:47;;;;;;;4.50;1.90;;;;;;;7.94;77.60;100424.98;1818542;77;21043;-74
2021/09/22 06:28:13;;;;;;;3.83;1.85;;;;;;;7.97;77.22;100427.16;1815104;78;20955;-73
2021/09/22 06:30:42;;;;;;;3.52;1.80;;;;;;;7.98;76.17;100434.88;1797751;78;21082;-73
2021/09/22 06:33:09;;;;;;;3.83;1.85;;;;;;;8.00;75.55;100425.34;1819905;77;21482;-73
2021/09/22 06:35:50;;;;;;;3.15;1.62;;;;;;;8.02;75.34;100431.73;1816660;77;21509;-75
2021/09/22 06:38:19;;;;;;;2.95;1.70;;;;;;;8.04;74.78;100430.98;1788691;78;21494;-74
2021/09/22 06:40:48;;;;;;;3.00;1.70;;;;;;;8.06;74.95;100423.05;1821242;77;21018;-73
2021/09/22 06:43:15;;;;;;;3.00;1.87;;;;;;;8.10;74.80;100425.48;1823707;78;20987;-73
2021/09/22 06:45:41;;;;;;;4.30;2.08;;;;;;;8.09;74.76;100423.86;1814569;78;21165;-74
2021/09/22 06:48:09;;;;;;;3.08;1.95;;;;;;;8.12;74.68;100441.99;1818195;77;37574;-74
2021/09/22 06:50:36;;;;;;;3.75;2.10;;;;;;;8.10;74.69;100434.80;1817334;77;21095;-74
2021/09/22 06:53:04;;;;;;;4.87;2.35;;;;;;;8.10;74.91;100438.80;1794888;78;21015;-74
2021/09/22 06:55:31;;;;;;;3.12;1.85;;;;;;;8.09;74.81;100436.36;1804298;78;21108;-74
2021/09/22 06:57:59;;;;;;;3.80;2.20;;;;;;;8.13;74.79;100429.52;1808580;77;21703;-74
2021/09/22 07:00:27;;;;;;;3.17;1.92;;;;;;;8.18;74.84;100445.02;1809133;78;21058;-74
2021/09/22 07:02:54;;;;;;;2.87;2.00;;;;;;;8.22;74.44;100437.34;1806808;78;21038;-74
2021/09/22 07:05:21;;;;;;;3.58;2.40;;;;;;;8.26;74.17;100435.84;1819666;77;21533;-73
2021/09/22 07:07:49;;;;;;;3.37;1.92;;;;;;;8.30;73.96;100436.16;1805218;78;21015;-74
2021/09/22 07:10:16;;;;;;;4.03;2.37;;;;;;;8.32;73.45;100439.35;1820580;77;21175;-74
2021/09/22 07:12:43;;;;;;;3.33;2.00;;;;;;;8.31;73.20;100436.42;1803321;78;21094;-73
2021/09/22 07:15:10;;;;;;;4.78;2.40;;;;;;;8.28;73.34;100438.23;1816256;78;21093;-73
2021/09/22 07:17:38;;;;;;;3.50;2.17;;;;;;;8.23;73.28;100443.78;1819200;78;21058;-74
2021/09/22 07:20:08;;;;;;;4.67;2.62;;;;;;;8.25;73.08;100441.39;1789153;79;21083;-76
2021/09/22 07:22:36;;;;;;;4.35;2.40;;;;;;;8.25;73.30;100432.07;1808893;76;21101;-73
2021/09/22 07:25:04;;;;;;;3.67;2.05;;;;;;;8.30;73.17;100443.60;1832489;77;21505;-71
2021/09/22 07:27:30;;;;;;;5.12;2.40;;;;;;;8.35;73.23;100440.20;1829220;77;21000;-69
2021/09/22 07:29:57;;;;;;;4.22;2.33;;;;;;;8.39;73.35;100438.68;1827344;77;21070;-70
2021/09/22 07:32:23;;;;;;;4.90;2.20;;;;;;;8.41;73.21;100441.91;1834307;77;21078;-70
2021/09/22 07:34:50;;;;;;;3.55;2.20;;;;;;;8.41;72.99;100443.25;1799649;77;21703;-69
2021/09/22 07:37:19;;;;;;;3.60;2.27;;;;;;;8.37;72.34;100436.78;1794547;78;21012;-69
2021/09/22 07:39:46;;;;;;;4.92;2.02;;;;;;;8.34;72.27;100438.06;1817772;77;21042;-69
2021/09/22 07:42:14;;;;;;;4.70;2.30;;;;;;;8.35;72.34;100439.67;1816717;78;21038;-70
2021/09/22 07:44:45;;;;;;;4.60;2.40;;;;;;;8.37;72.39;100436.25;1813512;77;21033;-68
2021/09/22 07:47:14;;;;;;;;;;;;;;;8.44;72.48;100442.76;1824549;76;21098;-70
2021/09/22 07:49:42;;;;;;;3.30;2.10;;;;;;;8.51;72.34;100435.39;1798107;78;20224;-69
2021/09/22 07:52:12;;;;;;;4.25;2.70;;;;;;;8.53;71.96;100438.62;1796614;78;21042;-69
2021/09/22 07:54:40;;;;;;;4.33;2.60;;;;;;;8.54;71.77;100446.88;1794839;79;21717;-70
2021/09/22 07:57:07;;;;;;;5.40;2.70;;;;;;;8.54;71.58;100438.90;1814375;79;21060;-70
2021/09/22 07:59:34;;;;;;;4.15;2.50;;;;;;;8.55;71.50;100445.02;1795813;78;21530;-69
2021/09/22 08:02:02;;;;;;;4.20;2.52;;;;;;;8.58;71.59;100441.34;1824215;77;21634;-68
2021/09/22 08:04:29;;;;;;;4.08;2.50;;;;;;;8.64;71.58;100440.89;1805450;78;21044;-69
2021/09/22 08:06:58;;;;;;;4.62;2.52;;;;;;;8.69;71.52;100439.11;1805314;78;21130;-70
2021/09/22 08:09:27;;;;;;;3.92;2.98;;;;;;;8.73;71.46;100440.75;1825302;77;21022;-70
2021/09/22 08:11:54;;;;;;;6.12;2.83;;;;;;;8.74;71.13;100434.89;1829972;76;21100;-69
2021/09/22 08:14:31;;;;;;;4.62;2.55;;;;;;;8.74;71.19;100434.89;1811680;79;21043;-70
2021/09/22 08:17:01;;;;;;;3.98;2.40;;;;;;;8.76;71.37;100430.13;1833119;77;20999;-69
2021/09/22 08:22:44;;;;;;;3.37;2.65;;;;;;;8.81;71.02;100440.30;1828360;76;20955;-69
2021/09/22 08:25:11;;;;;;;4.42;2.60;;;;;;;8.83;71.12;100430.22;1819644;77;21459;-70
2021/09/22 08:27:37;;;;;;;3.95;2.60;;;;;;;8.87;71.05;100429.19;1803965;78;21038;-69
2021/09/22 08:30:05;;;;;;;4.20;2.70;;;;;;;8.89;70.74;100441.75;1817111;77;21179;-70
2021/09/22 08:32:32;;;;;;;5.40;2.58;;;;;;;8.91;70.48;100428.97;1772362;78;21613;-69
2021/09/22 08:35:00;;;;;;;3.45;2.35;;;;;;;8.95;70.54;100428.77;1818022;77;20989;-71
2021/09/22 08:37:26;;;;;;;4.60;2.50;;;;;;;9.06;70.55;100423.82;1820347;77;22124;-69
2021/09/22 08:39:53;;;;;;;3.75;2.30;;;;;;;9.19;70.04;100421.30;1801175;78;21073;-70
2021/09/22 08:42:20;;;;;;;4.33;2.55;;;;;;;9.28;69.53;100424.30;1819452;78;20985;-70
2021/09/22 08:44:52;;;;;;;4.30;2.30;;;;;;;9.31;69.27;100434.45;1818742;78;21046;-70
2021/09/22 08:47:20;;;;;;;4.77;2.77;;;;;;;9.27;69.14;100426.16;1841075;76;21291;-68
2021/09/22 08:49:51;;;;;;;5.40;2.55;;;;;;;9.25;68.82;100426.16;1826703;76;21546;-69
2021/09/22 08:52:18;;;;;;;3.73;2.53;;;;;;;9.22;69.03;100423.46;1829259;77;20988;-70
2021/09/22 08:54:45;;;;;;;3.90;2.73;;;;;;;9.20;69.03;100424.23;1834076;76;21261;-70
2021/09/22 08:57:11;;;;;;;4.92;3.17;;;;;;;9.18;68.85;100424.20;1827758;77;21649;-69
2021/09/22 08:59:39;;;;;;;4.40;2.90;;;;;;;9.13;68.62;100428.95;1810731;77;21697;-68
2021/09/22 09:02:15;;;;;;;5.08;3.20;;;;;;;9.06;68.72;100426.48;1815436;77;21574;-69
2021/09/22 09:04:44;;;;;;;5.30;3.02;;;;;;;9.02;69.02;100426.72;1793679;78;21022;-70
2021/09/22 09:07:10;;;;;;;4.90;3.45;;;;;;;9.01;69.23;100429.08;1822093;77;21000;-69
2021/09/22 09:09:41;;;;;;;5.30;3.20;;;;;;;9.03;69.47;100426.98;1831557;78;21037;-69
2021/09/22 09:12:21;;;;;;;5.78;3.02;;;;;;;9.09;69.56;100431.31;1832962;76;21078;-70
2021/09/22 09:14:58;;;;;;;4.25;2.42;;;;;;;9.13;69.65;100429.75;1816248;78;21013;-69
2021/09/22 09:17:46;;;;;;;3.67;2.63;;;;;;;9.11;69.33;100427.89;1842819;76;20996;-70
2021/09/22 09:20:24;;;;;;;5.55;2.80;;;;;;;9.05;69.07;100431.55;1829200;77;21279;-68
2021/09/22 09:23:07;;;;;;;3.90;2.55;;;;;;;8.93;69.19;100435.66;1836813;76;21028;-70
2021/09/22 09:25:38;;;;;;;3.97;2.80;;;;;;;8.86;69.33;100430.25;1828148;76;21533;-70
2021/09/22 09:28:26;;;;;;;4.95;2.70;;;;;;;8.80;69.78;100427.25;1794840;78;21751;-68
2021/09/22 09:30:59;;;;;;;4.40;2.45;;;;;;;8.73;69.94;100424.77;1826444;76;21569;-71
2021/09/22 09:33:52;;;;;;;3.72;2.58;;;;;;;8.68;70.05;100428.69;1824010;76;21057;-69
2021/09/22 09:36:27;;;;;;;3.40;2.22;;;;;;;8.68;70.23;100430.81;1822512;76;21620;-70
2021/09/22 09:39:11;;;;;;;4.53;2.85;;;;;;;8.79;70.50;100429.11;1832121;76;21004;-69
2021/09/22 09:41:50;;;;;;;5.92;2.50;;;;;;;8.92;70.22;100419.94;1819862;76;21186;-69
2021/09/22 09:44:21;;;;;;;4.53;2.42;;;;;;;9.05;69.97;100423.55;1831105;76;21478;-69
2021/09/22 09:46:47;;;;;;;4.65;2.10;;;;;;;9.22;69.63;100417.33;1840028;76;21161;-69
2021/09/22 09:49:18;;;;;;;3.87;2.33;;;;;;;9.36;69.19;100415.86;1827423;76;21018;-68
2021/09/22 09:51:53;;;;;;;3.30;2.30;;;;;;;9.44;68.86;100420.72;1825926;78;21288;-69
2021/09/22 09:54:27;;;;;;;3.47;2.20;;;;;;;9.47;68.30;100415.42;1805666;77;21109;-69
2021/09/22 09:56:57;;;;;;;3.87;2.47;;;;;;;9.44;67.98;100411.39;1830014;76;21698;-69
2021/09/22 09:59:24;;;;;;;3.83;2.50;;;;;;;9.37;67.81;100416.13;1832870;76;21324;-69
2021/09/22 10:01:55;;;;;;;5.70;2.53;;;;;;;9.32;68.05;100423.56;1802605;78;21014;-69
2021/09/22 10:04:23;;;;;;;5.53;2.60;;;;;;;9.29;67.96;100417.93;1815535;78;21181;-69
2021/09/22 10:06:51;;;;;;;4.53;2.60;;;;;;;9.27;68.33;100427.49;1822383;78;21250;-70
2021/09/22 10:09:18;;;;;;;4.60;2.37;;;;;;;9.22;68.25;100420.00;1801247;78;21225;-69
2021/09/22 10:11:47;;;;;;;3.83;2.70;;;;;;;9.10;68.48;100424.13;1820625;78;22211;-69
2021/09/22 10:14:16;;;;;;;4.70;2.63;;;;;;;9.09;69.01;100424.66;1822573;77;21074;-69
2021/09/22 10:16:47;;;;;;;4.50;2.97;;;;;;;9.18;69.48;100418.86;1814334;76;21647;-69
2021/09/22 10:19:14;;;;;;;5.13;3.23;;;;;;;9.28;69.15;100425.62;1768178;78;21847;-70
2021/09/22 10:21:43;;;;;;;4.90;3.00;;;;;;;9.33;68.88;100425.16;1818769;77;21283;-70
2021/09/22 10:24:11;;;;;;;5.27;3.00;;;;;;;9.33;68.66;100418.50;1833197;78;21262;-69
2021/09/22 10:26:39;;;;;;;6.50;2.90;;;;;;;9.34;68.46;100419.30;1796941;78;21267;-69
2021/09/22 10:29:28;;;;;;;5.13;3.33;;;;;;;9.34;68.85;100425.96;1823413;78;21665;-69
2021/09/22 10:31:58;;;;;;;5.57;3.10;;;;;;;9.30;68.81;100430.19;1829980;76;21153;-68
2021/09/22 10:34:36;;;;;;;4.87;3.03;;;;;;;9.30;69.09;100423.00;1834223;77;22240;-68
2021/09/22 10:37:07;;;;;;;4.13;2.53;;;;;;;9.37;68.97;100434.79;1794268;78;21176;-69
2021/09/22 10:39:40;;;;;;;4.17;2.57;;;;;;;9.38;68.76;100423.89;1789442;78;21304;-69
2021/09/22 10:42:30;;;;;;;4.03;2.30;;;;;;;9.34;68.31;100419.30;1812853;77;21086;-68
2021/09/22 10:45:22;;;;;;;3.47;2.40;;;;;;;9.34;68.54;100424.09;1810449;77;21115;-69
2021/09/22 10:47:50;;;;;;;3.53;2.40;;;;;;;9.39;68.41;100412.70;1809803;78;21077;-69
2021/09/22 10:50:43;;;;;;;4.13;2.67;;;;;;;9.42;68.22;100412.19;1813649;77;21652;-69
2021/09/22 10:53:36;;;;;;;4.33;3.00;;;;;;;9.46;68.26;100411.95;1800801;77;21110;-69
2021/09/22 10:56:22;;;;;;;4.13;3.00;;;;;;;9.49;68.07;100419.45;1808725;78;21319;-69
2021/09/22 10:59:11;;;;;;;5.95;3.00;;;;;;;9.53;67.80;100407.22;1824278;78;21235;-68
2021/09/22 11:01:55;;;;;;;4.60;3.30;;;;;;;9.54;67.77;100409.34;1829845;76;22025;-69
2021/09/22 11:05:05;;;;;;;5.55;3.52;;;;;;;9.48;67.46;100412.52;1828056;77;21030;-69
2021/09/22 11:08:04;;;;;;;6.53;3.75;;;;;;;9.40;67.78;100415.63;1822702;76;21073;-68
2021/09/22 11:10:53;;;;;;;5.00;3.20;;;;;;;9.34;68.41;100408.63;1821759;76;21055;-69
2021/09/22 11:13:34;;;;;;;4.67;3.35;;;;;;;9.30;68.58;100417.66;1832976;76;21666;-69
2021/09/22 11:16:20;;;;;;;5.00;3.20;;;;;;;9.28;68.79;100413.64;1829184;76;21042;-69
2021/09/22 11:19:02;;;;;;;5.50;3.62;;;;;;;9.29;68.69;100420.06;1823654;77;21041;-70
2021/09/22 11:21:38;;;;;;;6.08;4.20;;;;;;;9.25;68.80;100418.96;1832877;77;21748;-70
2021/09/22 11:24:14;;;;;;;5.03;3.47;;;;;;;9.26;68.82;100416.56;1828981;76;21088;-69
2021/09/22 11:26:56;;;;;;;6.47;4.05;;;;;;;9.26;68.77;100413.09;1816421;78;21111;-69
2021/09/22 11:29:46;;;;;;;6.22;3.50;;;;;;;9.24;68.88;100413.33;1824006;78;21286;-69
2021/09/22 11:32:39;;;;;;;6.10;3.73;;;;;;;9.30;69.07;100403.00;1815243;77;21734;-70
2021/09/22 11:35:25;;;;;;;6.47;3.85;;;;;;;9.38;69.12;100405.23;1842056;77;21621;-69
2021/09/22 11:37:53;;;;;;;9.33;4.10;;;;;;;9.52;69.08;100406.15;1778389;78;21527;-70
2021/09/22 11:40:32;;;;;;;6.27;4.33;;;;;;;9.59;68.56;100398.20;1822755;77;21644;-68
2021/09/22 11:43:07;;;;;;;5.97;4.30;;;;;;;9.65;68.40;100399.06;1818974;77;21235;-69
2021/09/22 11:45:49;;;;;;;7.50;5.00;;;;;;;9.69;67.54;100402.02;1824198;77;21306;-69
2021/09/22 11:48:19;;;;;;;7.73;4.77;;;;;;;9.70;67.29;100397.75;1821620;77;21363;-69
2021/09/22 11:50:47;;;;;;;8.30;4.70;;;;;;;9.71;67.22;100393.25;1819378;76;21086;-69
2021/09/22 11:53:17;;;;;;;6.10;4.50;;;;;;;9.75;67.09;100397.80;1831679;76;21784;-70
2021/09/22 11:55:45;;;;;;;6.70;4.20;;;;;;;9.80;67.29;100398.36;1803637;78;21268;-69
2021/09/22 11:58:19;;;;;;;6.47;4.40;;;;;;;9.87;67.24;100394.94;1811637;77;21064;-69
2021/09/22 12:00:53;;;;;;;5.53;3.90;;;;;;;9.92;66.97;100399.53;1818208;77;26969;-69
2021/09/22 12:03:22;;;;;;;6.00;4.30;;;;;;;9.95;67.10;100407.02;1798970;77;21129;-69
2021/09/22 12:06:11;;;;;;;6.70;4.23;;;;;;;9.97;66.80;100399.05;1824736;77;21281;-70
2021/09/22 12:08:39;;;;;;;7.57;4.00;;;;;;;9.97;66.48;100403.55;1833242;76;21093;-68
2021/09/22 12:11:08;;;;;;;6.13;4.00;;;;;;;9.95;66.63;100400.35;1817020;77;21819;-69